Leadville, CO (80429)

8:29 PM MDT on August 24, 2016 (GMT -0600)
Lake County | | Change Station

Elev 9928 ft 39.23 °N, 106.32 °W | Updated 36 minutes ago

Clear
Clear
47 °F
Feels Like 47 °F
N
9
Wind Variable Wind from South

Today
High -- | Low -- °F
--% Chance of Precip.
Yesterday
High -- | Low -- °F
Precip. -- in
Pressure 30.06 in
Visibility 10.0 miles
Clouds Clear
Dew Point 43 °F
Humidity 86%
Rainfall 0.19 in
Snow Depth Not available.
6:26 AM 7:46 PM
Waning Gibbous, 51% visible
METAR KLXV 250153Z AUTO 18008KT 10SM CLR 08/06 A3042 RMK AO2 SLP179 T00830061 $
Pressure 30.06 in
Visibility 10.0 miles
Clouds Clear
Dew Point 43 °F
Humidity 86%
Rainfall 0.19 in
Snow Depth Not available.
6:26 AM 7:46 PM
Waning Gibbous, 51% visible
METAR KLXV 250153Z AUTO 18008KT 10SM CLR 08/06 A3042 RMK AO2 SLP179 T00830061 $

10-Day Weather Forecast

Almanac

Astronomy

Aug. 24, 2016 Rise Set
Actual Time
Civil Twilight
Nautical Twilight
Astronomical Twilight
Moon
Length of Visible Light
Length of Day
Tomorrow will be .
, % of the Moon is Illuminated

Today's Extremes

State Highs State Lows

Community

WunderPhotos

Upload Photos

1,934,778 photos uploaded!

WunderBlog® & News

Nearby

Air Quality

  Air Quality AQ Index Pollutant
Not available.

Snow Depth

Station Depth Elevation

Earthquake Activity

City Distance Mag. Time & Date
Minimum magnitude displayed is 2.5.

Coastal Water Temperatures

Place Temperature

Stations

Nearby Weather Stations

Station Location Temp. Windchill Dew Point Humidity Wind Precip. Elev Updated Type
                   

Watches & Warnings

There are currently no watches in effect.